Kane - southern half: Past 24 Hour Conditions

 

Clyde Airport

11:00 AM EST 22 November 2014
This table is a summary of hourly weather conditions for the past 24 hours.
Date / Time
(EST)
Wind(knots) Conditions Visibility(km) Pressure(kPa) Air tempC) Relative humidity(%) Dew pointC) Wind Chill
22 November 2014
11:00 NW 13 Light Snow 11 99.9 -16 82 -18 -26
10:00 WNW 12 Light Snow 2 99.9 -16 84 -19 -27
9:00 NW 10 Light Snow 3 100.0 -16 83 -19 -26
8:00 WNW 10 Light Snow 2 100.0 -16 83 -19 -26
7:00 WNW 10 Light Snow 4 100.0 -17 80 -20 -26
6:00 NW 11 Cloudy 16 100.0 -18 76 -22 -28
5:00 WNW 11 Light Snow 16 100.0 -19 76 -22 -29
4:00 NW 10 Cloudy 16 100.0 -19 76 -22 -28
3:00 NW 11 Cloudy 16 99.9 -19 76 -22 -29
2:00 NW 11 Partly Cloudy 16 99.9 -21 76 -24 -32
1:00 NW 11 Clear 16 99.9 -21 78 -24 -32
0:00 NNW 10 Clear 16 99.8 -21 81 -23 -31
21 November 2014
23:00 WSW 3 Clear 16 99.8 -15 68 -19 -18
22:00 calm Clear 16 99.8 -16 76 -19 *
21:00 calm Clear 16 99.8 -14 81 -17 *
20:00 NNW 3 Cloudy 16 99.8 -18 84 -20 -22
19:00 ENE 3 Light Snow 24 99.8 -16 83 -19 -21
18:00 ESE 2 Cloudy 24 99.7 -13 77 -16 -15
17:00 W 3 Light Snow 24 99.7 -14 79 -17 -18
16:00 SSE 6 Light Snow 24 99.7 -14 79 -17 -20
15:00 W 2 Mostly Cloudy 32 99.6 -16 78 -19 -18
14:00 calm Mostly Cloudy 32 99.6 -18 78 -21 *
13:00 NNW 2 Partly Cloudy 32 99.5 -21 80 -24 -25
12:00 W 3 Mainly Sunny 32 99.4 -19 75 -23 -24
11:00 W 6 Mainly Sunny 32 99.3 -18 74 -22 -25
 
Map of Arctic - Eastern Arctic marine weather areas Baker Lake Airport Chesterfield Inlet Airport Coral Harbour Airport Gjoa Haven Airport Kugaaruk Airport Rankin Inlet Airport Shepherd Bay Airport Whale Cove Airport Arctic Bay Brevoort Island Qikiqtarjuaq Airport Cape Dorset Airport Cape Dyer Cape Hooper Clyde Airport Grise Fiord Airport Hall Beach Airport Igloolik Airport Iqaluit Airport Longstaff Bluff Pangnirtung Airport Pond Inlet Airport Repulse Bay Airport Resolute Airport Resolution Island Rowley Island Airport Taloyoak Airport Wager Bay Akulivik Airport Ivujivik Airport Puvirnituq Airport Kangiqsujuaq Airport Kangirsuk Airport Quaqtaq Airport Tasiujaq Airport Cape Kakkiviak Cape Kiglapait Nain Airport Saglek Cape Mercy Kimmirut Airport Aupaluk Airport Salluit Airport Kangiqsualujjuaq Airport Fort Ross
Legend: buoyBuoy land stationLand Station